createdAt,value
2023-05-22T00:00:24.654Z,19.15
2023-05-22T00:02:52.505Z,19.15
2023-05-22T00:05:20.461Z,19.14
2023-05-22T00:07:47.022Z,19.16
2023-05-22T00:10:13.533Z,19.17
2023-05-22T00:12:40.176Z,19.15
2023-05-22T00:15:07.665Z,19.15
2023-05-22T00:17:34.502Z,19.13
2023-05-22T00:20:04.418Z,19.12
2023-05-22T00:22:31.618Z,19.10
2023-05-22T00:24:58.245Z,19.06
2023-05-22T00:27:24.856Z,19.04
2023-05-22T00:29:51.388Z,19.02
2023-05-22T00:32:17.830Z,18.96
2023-05-22T00:34:44.401Z,18.92
2023-05-22T00:37:10.906Z,18.90
2023-05-22T00:39:37.340Z,18.88
2023-05-22T00:42:04.157Z,18.87
2023-05-22T00:44:30.792Z,18.86
2023-05-22T00:46:57.374Z,18.82
2023-05-22T00:49:23.914Z,18.78
2023-05-22T00:51:50.464Z,18.77
2023-05-22T00:54:17.316Z,18.72
2023-05-22T00:56:44.056Z,18.71
2023-05-22T00:59:10.778Z,18.69
2023-05-22T01:01:41.982Z,18.67
2023-05-22T01:04:11.500Z,18.62
2023-05-22T01:06:38.943Z,18.59
2023-05-22T01:09:05.558Z,18.56
2023-05-22T01:11:41.086Z,18.54
2023-05-22T01:14:23.905Z,18.53
2023-05-22T01:17:08.809Z,18.49
2023-05-22T01:20:07.582Z,18.48
2023-05-22T01:22:43.350Z,18.47
2023-05-22T01:25:34.910Z,18.44
2023-05-22T01:28:11.917Z,18.40
2023-05-22T01:30:49.231Z,18.37
2023-05-22T01:33:18.027Z,18.35
2023-05-22T01:35:48.619Z,18.33
2023-05-22T01:38:16.768Z,18.30
2023-05-22T01:40:45.742Z,18.28
2023-05-22T01:43:14.693Z,18.25
2023-05-22T01:45:41.355Z,18.19
2023-05-22T01:48:07.948Z,18.15
2023-05-22T01:50:34.711Z,18.11
2023-05-22T01:53:13.487Z,18.10
2023-05-22T01:55:52.038Z,18.09
2023-05-22T01:58:41.342Z,18.06
2023-05-22T02:01:12.000Z,18.05
2023-05-22T02:03:40.110Z,18.03
2023-05-22T02:06:08.945Z,17.99
2023-05-22T02:08:40.462Z,17.96
2023-05-22T02:11:09.688Z,17.92
2023-05-22T02:13:37.473Z,17.85
2023-05-22T02:16:04.625Z,17.85
2023-05-22T02:18:31.498Z,17.82
2023-05-22T02:20:58.366Z,17.79
2023-05-22T02:23:25.637Z,17.77
2023-05-22T02:25:52.269Z,17.76
2023-05-22T02:28:18.703Z,17.77
2023-05-22T02:30:45.137Z,17.75
2023-05-22T02:33:11.697Z,17.72
2023-05-22T02:35:38.215Z,17.68
2023-05-22T02:38:04.853Z,17.67
2023-05-22T02:40:31.325Z,17.67
2023-05-22T02:42:57.755Z,17.63
2023-05-22T02:45:24.247Z,17.63
2023-05-22T02:47:50.753Z,17.62
2023-05-22T02:50:17.455Z,17.58
2023-05-22T02:52:45.169Z,17.43
2023-05-22T02:55:12.001Z,17.30
2023-05-22T02:57:38.465Z,17.17
2023-05-22T03:00:11.389Z,17.20
2023-05-22T03:02:38.968Z,17.09
2023-05-22T03:05:06.156Z,17.15
2023-05-22T03:07:32.654Z,17.13
2023-05-22T03:09:59.132Z,17.05
2023-05-22T03:12:25.928Z,16.96
2023-05-22T03:14:52.383Z,16.95
2023-05-22T03:17:18.850Z,16.95
2023-05-22T03:19:45.283Z,16.96
2023-05-22T03:22:11.725Z,16.95
2023-05-22T03:24:38.178Z,16.95
2023-05-22T03:27:04.933Z,16.94
2023-05-22T03:29:31.636Z,16.93
2023-05-22T03:31:58.868Z,16.90
2023-05-22T03:34:26.988Z,16.89
2023-05-22T03:36:53.474Z,16.82
2023-05-22T03:39:19.897Z,16.77
2023-05-22T03:41:46.334Z,16.78
2023-05-22T03:44:12.763Z,16.76
2023-05-22T03:46:39.217Z,16.76
2023-05-22T03:49:05.706Z,16.73
2023-05-22T03:51:32.421Z,16.69
2023-05-22T03:53:58.896Z,16.68
2023-05-22T03:56:25.774Z,16.64
2023-05-22T03:58:52.350Z,16.61
2023-05-22T04:01:18.866Z,16.56
2023-05-22T04:03:45.444Z,16.41
2023-05-22T04:06:13.723Z,16.38
2023-05-22T04:08:40.446Z,16.36
2023-05-22T04:11:06.977Z,16.32
2023-05-22T04:13:33.475Z,16.21
2023-05-22T04:16:01.944Z,16.14
2023-05-22T04:18:28.771Z,16.16
2023-05-22T04:20:55.196Z,16.18
2023-05-22T04:23:21.712Z,16.18
2023-05-22T04:25:48.308Z,16.17
2023-05-22T04:28:17.517Z,16.18
2023-05-22T04:30:44.552Z,16.17
2023-05-22T04:33:11.296Z,16.16
2023-05-22T04:35:37.834Z,16.15
2023-05-22T04:38:06.491Z,16.17
2023-05-22T04:40:34.256Z,16.12
2023-05-22T04:43:01.478Z,16.00
2023-05-22T04:45:28.861Z,15.87
2023-05-22T04:47:56.210Z,15.87
2023-05-22T04:50:23.879Z,15.84
2023-05-22T04:52:50.502Z,15.91
2023-05-22T04:55:17.227Z,15.96
2023-05-22T04:57:47.218Z,15.94
2023-05-22T05:00:15.934Z,15.90
2023-05-22T05:02:42.879Z,15.92
2023-05-22T05:05:09.560Z,15.97
2023-05-22T05:07:39.800Z,15.97
2023-05-22T05:10:07.260Z,16.00
2023-05-22T05:12:34.059Z,16.01
2023-05-22T05:15:00.757Z,16.00
2023-05-22T05:17:27.384Z,16.03
2023-05-22T05:19:54.226Z,16.01
2023-05-22T05:22:20.660Z,16.06
2023-05-22T05:24:47.279Z,16.09
2023-05-22T05:27:14.087Z,16.09
2023-05-22T05:29:41.243Z,16.08
2023-05-22T05:32:08.438Z,15.98
2023-05-22T05:34:35.037Z,15.91
2023-05-22T05:37:02.739Z,15.93
2023-05-22T05:39:29.552Z,15.81
2023-05-22T05:41:56.236Z,15.86
2023-05-22T05:44:22.742Z,15.92
2023-05-22T05:46:49.271Z,15.96
2023-05-22T05:49:15.745Z,15.97
2023-05-22T05:51:42.193Z,16.01
2023-05-22T05:54:08.658Z,15.96
2023-05-22T05:56:35.727Z,15.96
2023-05-22T05:59:02.155Z,15.92
2023-05-22T06:01:32.898Z,15.79
2023-05-22T06:04:03.172Z,15.64
2023-05-22T06:06:36.062Z,15.55
2023-05-22T06:09:05.590Z,15.66
2023-05-22T06:11:35.045Z,15.77
2023-05-22T06:14:03.202Z,15.82
2023-05-22T06:16:30.054Z,15.87
2023-05-22T06:18:58.754Z,15.76
2023-05-22T06:21:25.327Z,15.75
2023-05-22T06:23:52.041Z,15.51
2023-05-22T06:26:18.718Z,15.51
2023-05-22T06:28:45.539Z,15.44
2023-05-22T06:31:12.075Z,15.60
2023-05-22T06:33:40.590Z,15.60
2023-05-22T06:36:08.832Z,15.58
2023-05-22T06:38:35.462Z,15.70
2023-05-22T06:41:02.044Z,15.80
2023-05-22T06:43:28.478Z,15.88
2023-05-22T06:45:55.033Z,16.01
2023-05-22T06:48:21.792Z,15.83
2023-05-22T06:50:48.270Z,15.70
2023-05-22T06:53:14.773Z,15.78
2023-05-22T06:55:41.927Z,15.63
2023-05-22T06:58:08.622Z,15.72
2023-05-22T07:00:35.240Z,15.50
2023-05-22T07:03:02.145Z,15.29
2023-05-22T07:05:28.757Z,15.24
2023-05-22T07:07:55.555Z,15.33
2023-05-22T07:10:22.143Z,15.56
2023-05-22T07:12:48.633Z,15.57
2023-05-22T07:15:15.169Z,15.69
2023-05-22T07:17:41.836Z,15.82
2023-05-22T07:20:09.661Z,15.87
2023-05-22T07:22:36.126Z,15.95
2023-05-22T07:25:02.676Z,16.00
2023-05-22T07:27:29.198Z,15.92
2023-05-22T07:29:55.728Z,15.95
2023-05-22T07:32:22.305Z,16.08
2023-05-22T07:34:48.838Z,16.15
2023-05-22T07:37:15.350Z,16.21
2023-05-22T07:39:42.950Z,16.28
2023-05-22T07:42:09.535Z,16.35
2023-05-22T07:44:36.240Z,16.38
2023-05-22T07:47:02.757Z,16.29
2023-05-22T07:49:29.232Z,16.43
2023-05-22T07:51:55.897Z,16.27
2023-05-22T07:54:22.549Z,16.22
2023-05-22T07:56:49.571Z,16.43
2023-05-22T07:59:18.571Z,16.53
2023-05-22T08:01:45.370Z,16.71
2023-05-22T08:04:12.042Z,16.74
2023-05-22T08:06:39.562Z,16.55
2023-05-22T08:09:06.151Z,16.47
2023-05-22T08:11:33.985Z,16.61
2023-05-22T08:14:00.449Z,16.66
2023-05-22T08:16:26.996Z,16.70
2023-05-22T08:18:53.509Z,16.74
2023-05-22T08:21:20.063Z,16.85
2023-05-22T08:23:46.603Z,16.94
2023-05-22T08:26:13.084Z,16.96
2023-05-22T08:28:43.981Z,16.92
2023-05-22T08:31:11.721Z,16.90
2023-05-22T08:33:38.455Z,17.03
2023-05-22T08:36:05.449Z,16.92
2023-05-22T08:38:31.947Z,16.89
2023-05-22T08:40:58.527Z,17.00
2023-05-22T08:43:25.069Z,17.06
2023-05-22T08:45:57.820Z,17.12
2023-05-22T08:48:24.727Z,17.05
2023-05-22T08:50:57.324Z,17.02
2023-05-22T08:53:25.831Z,17.05
2023-05-22T08:55:53.648Z,17.10
2023-05-22T08:58:21.054Z,17.02
2023-05-22T09:00:48.122Z,16.93
2023-05-22T09:03:15.799Z,16.84
2023-05-22T09:05:42.465Z,16.80
2023-05-22T09:08:19.767Z,16.90
2023-05-22T09:10:47.254Z,16.97
2023-05-22T09:13:33.043Z,17.02
2023-05-22T09:16:07.480Z,17.06
2023-05-22T09:18:33.974Z,17.08
2023-05-22T09:21:02.064Z,17.12
2023-05-22T09:23:29.667Z,17.15
2023-05-22T09:25:57.435Z,17.18
2023-05-22T09:28:24.556Z,17.18
2023-05-22T09:30:51.883Z,17.27
2023-05-22T09:33:19.272Z,17.28
2023-05-22T09:35:51.687Z,17.41
2023-05-22T09:38:18.290Z,17.52
2023-05-22T09:40:44.777Z,17.53
2023-05-22T09:43:12.733Z,17.60
2023-05-22T09:45:39.457Z,17.53
2023-05-22T09:48:07.084Z,17.56
2023-05-22T09:50:33.777Z,17.50
2023-05-22T09:53:04.898Z,17.52
2023-05-22T09:55:32.219Z,17.63
2023-05-22T09:58:03.159Z,17.65
2023-05-22T10:00:30.577Z,17.63
2023-05-22T10:03:08.987Z,17.68
2023-05-22T10:05:38.018Z,17.72
2023-05-22T10:08:15.057Z,17.70
2023-05-22T10:10:43.412Z,17.68
2023-05-22T10:13:11.003Z,17.66
2023-05-22T10:15:38.386Z,17.72
2023-05-22T10:18:05.809Z,17.71
2023-05-22T10:20:32.903Z,17.79
2023-05-22T10:23:02.660Z,17.83
2023-05-22T10:25:30.265Z,17.76
2023-05-22T10:27:58.364Z,17.76
2023-05-22T10:30:34.042Z,17.73
2023-05-22T10:33:12.270Z,17.71
2023-05-22T10:35:44.427Z,17.79
2023-05-22T10:39:08.131Z,17.85
2023-05-22T10:41:35.118Z,17.93
2023-05-22T10:44:02.975Z,17.94
2023-05-22T10:46:34.401Z,17.99
2023-05-22T10:49:00.969Z,18.08
2023-05-22T10:51:27.993Z,18.19
2023-05-22T10:54:05.612Z,18.34
2023-05-22T10:56:35.155Z,18.29
2023-05-22T10:59:05.272Z,18.45
2023-05-22T11:01:36.133Z,18.51
2023-05-22T11:04:06.804Z,18.51
2023-05-22T11:06:33.306Z,18.70
2023-05-22T11:09:00.023Z,18.83
2023-05-22T11:11:27.324Z,18.76
2023-05-22T11:14:03.185Z,18.61
2023-05-22T11:16:33.747Z,18.75
2023-05-22T11:19:21.162Z,18.91
2023-05-22T11:21:49.568Z,19.11
2023-05-22T11:24:17.935Z,19.27
2023-05-22T11:26:44.905Z,19.45
2023-05-22T11:29:11.575Z,19.49
2023-05-22T11:31:38.661Z,19.47
2023-05-22T11:34:05.629Z,19.76
2023-05-22T11:36:32.361Z,19.98
2023-05-22T11:39:00.067Z,20.05
2023-05-22T11:41:34.164Z,20.14
2023-05-22T11:44:01.580Z,20.15
2023-05-22T11:46:30.163Z,19.93
2023-05-22T11:48:56.946Z,20.09
2023-05-22T11:51:23.502Z,20.28
2023-05-22T11:53:49.966Z,20.34
2023-05-22T11:56:21.733Z,20.37
2023-05-22T11:58:51.893Z,20.21
2023-05-22T12:01:18.501Z,20.65
2023-05-22T12:03:45.111Z,21.01
2023-05-22T12:06:11.974Z,21.19
2023-05-22T12:08:39.308Z,21.27
2023-05-22T12:11:07.039Z,21.47
2023-05-22T12:13:33.535Z,21.56
2023-05-22T12:16:00.948Z,21.48
2023-05-22T12:18:35.378Z,21.62
2023-05-22T12:21:01.926Z,21.75
2023-05-22T12:23:30.017Z,21.81
2023-05-22T12:26:08.610Z,21.86
2023-05-22T12:28:35.334Z,22.07
2023-05-22T12:31:01.804Z,22.19
2023-05-22T12:33:29.594Z,22.11
2023-05-22T12:36:00.328Z,22.30
2023-05-22T12:38:28.051Z,22.43
2023-05-22T12:40:58.273Z,22.48
2023-05-22T12:43:25.418Z,22.54
2023-05-22T12:45:52.001Z,22.55
2023-05-22T12:48:19.352Z,22.09
2023-05-22T12:50:49.219Z,22.17
2023-05-22T12:53:15.845Z,22.35
2023-05-22T12:55:43.311Z,22.61
2023-05-22T12:58:09.800Z,22.58
2023-05-22T13:00:36.334Z,22.81
2023-05-22T13:03:03.781Z,22.91
2023-05-22T13:05:30.457Z,22.63
2023-05-22T13:07:57.052Z,22.50
2023-05-22T13:10:23.525Z,22.85
2023-05-22T13:12:51.226Z,23.12
2023-05-22T13:15:18.517Z,23.30
2023-05-22T13:17:45.702Z,23.51
2023-05-22T13:20:13.418Z,23.77
2023-05-22T13:22:41.237Z,23.90
2023-05-22T13:25:08.110Z,23.94
2023-05-22T13:27:34.613Z,24.07
2023-05-22T13:30:01.152Z,24.29
2023-05-22T13:32:27.701Z,24.29
2023-05-22T13:34:54.182Z,24.36
2023-05-22T13:37:20.903Z,24.18
2023-05-22T13:39:47.706Z,24.32
2023-05-22T13:42:14.434Z,24.37
2023-05-22T13:44:41.042Z,24.49
2023-05-22T13:47:07.735Z,24.47
2023-05-22T13:49:34.358Z,24.48
2023-05-22T13:52:00.838Z,24.62
2023-05-22T13:54:27.586Z,24.72
2023-05-22T13:56:54.203Z,24.79
2023-05-22T13:59:20.649Z,24.67
2023-05-22T14:01:47.082Z,24.65
2023-05-22T14:04:13.538Z,24.67
2023-05-22T14:06:40.077Z,24.83
2023-05-22T14:09:07.934Z,24.94
2023-05-22T14:11:34.556Z,24.93
2023-05-22T14:14:01.152Z,24.70
2023-05-22T14:16:27.688Z,24.86
2023-05-22T14:18:54.225Z,24.58
2023-05-22T14:21:20.730Z,24.75
2023-05-22T14:23:47.202Z,24.57
2023-05-22T14:26:14.601Z,24.62
2023-05-22T14:28:41.660Z,24.76
2023-05-22T14:31:08.143Z,24.80
2023-05-22T14:33:35.813Z,24.43
2023-05-22T14:36:02.688Z,23.77
2023-05-22T14:38:33.490Z,24.10
2023-05-22T14:41:01.062Z,24.32
2023-05-22T14:43:27.544Z,24.43
2023-05-22T14:45:55.822Z,24.56
2023-05-22T14:48:26.407Z,24.68
2023-05-22T14:50:56.375Z,24.72
2023-05-22T14:53:23.214Z,24.80
2023-05-22T14:55:50.070Z,24.80
2023-05-22T14:58:16.598Z,24.86
2023-05-22T15:00:43.074Z,24.70
2023-05-22T15:03:09.626Z,24.83
2023-05-22T15:05:36.321Z,24.78
2023-05-22T15:08:02.807Z,24.66
2023-05-22T15:10:29.333Z,24.69
2023-05-22T15:12:55.812Z,24.62
2023-05-22T15:15:22.452Z,24.62
2023-05-22T15:17:48.919Z,24.76
2023-05-22T15:20:15.509Z,24.59
2023-05-22T15:22:41.978Z,24.28
2023-05-22T15:25:12.266Z,24.48
2023-05-22T15:27:39.647Z,24.58
2023-05-22T15:30:09.510Z,24.38
2023-05-22T15:32:37.035Z,23.86
2023-05-22T15:35:05.411Z,24.12
2023-05-22T15:37:33.610Z,24.27
2023-05-22T15:40:01.401Z,24.40
2023-05-22T15:42:28.065Z,24.33
2023-05-22T15:44:54.576Z,24.38
2023-05-22T15:47:21.079Z,24.42
2023-05-22T15:49:47.767Z,24.05
2023-05-22T15:52:14.244Z,24.16
2023-05-22T15:54:40.804Z,24.16
2023-05-22T15:57:07.293Z,24.29
2023-05-22T15:59:33.824Z,24.30
2023-05-22T16:02:00.342Z,24.35
2023-05-22T16:04:26.801Z,24.13
2023-05-22T16:06:53.286Z,24.20
2023-05-22T16:09:19.812Z,24.27
2023-05-22T16:11:46.555Z,24.36
2023-05-22T16:14:13.341Z,24.09
2023-05-22T16:16:40.044Z,24.13
2023-05-22T16:19:06.720Z,24.07
2023-05-22T16:21:33.259Z,24.00
2023-05-22T16:23:59.769Z,24.01
2023-05-22T16:26:26.901Z,23.98
2023-05-22T16:28:53.410Z,23.74
2023-05-22T16:31:20.061Z,23.78
2023-05-22T16:33:46.582Z,23.78
2023-05-22T16:36:13.230Z,23.72
2023-05-22T16:38:39.795Z,23.79
2023-05-22T16:41:06.269Z,23.85
2023-05-22T16:43:32.727Z,23.82
2023-05-22T16:45:59.298Z,23.79
2023-05-22T16:48:25.754Z,23.73
2023-05-22T16:50:52.283Z,23.73
2023-05-22T16:53:18.789Z,23.67
2023-05-22T16:55:45.471Z,23.63
2023-05-22T16:58:12.604Z,23.51
2023-05-22T17:00:40.192Z,23.49
2023-05-22T17:03:08.188Z,23.49
2023-05-22T17:05:35.259Z,23.43
2023-05-22T17:08:01.801Z,23.47
2023-05-22T17:10:28.325Z,23.36
2023-05-22T17:12:54.933Z,23.39
2023-05-22T17:15:21.382Z,23.35
2023-05-22T17:17:47.865Z,23.30
2023-05-22T17:20:14.316Z,23.29
2023-05-22T17:22:42.393Z,23.19
2023-05-22T17:25:09.352Z,23.18
2023-05-22T17:27:36.834Z,23.13
2023-05-22T17:30:04.877Z,23.01
2023-05-22T17:32:31.570Z,22.86
2023-05-22T17:34:58.249Z,22.83
2023-05-22T17:37:24.726Z,22.71
2023-05-22T17:39:51.778Z,22.63
2023-05-22T17:42:18.365Z,22.58
2023-05-22T17:44:45.060Z,22.53
2023-05-22T17:47:13.243Z,22.37
2023-05-22T17:49:39.985Z,22.34
2023-05-22T17:52:08.479Z,22.32
2023-05-22T17:54:35.746Z,22.20
2023-05-22T17:57:04.104Z,22.01
2023-05-22T17:59:32.503Z,21.85
2023-05-22T18:01:59.138Z,21.79
2023-05-22T18:04:25.988Z,21.67
2023-05-22T18:06:52.529Z,21.58
2023-05-22T18:09:18.999Z,21.49
2023-05-22T18:11:45.664Z,21.42
2023-05-22T18:14:12.197Z,21.30
2023-05-22T18:16:38.719Z,21.25
2023-05-22T18:19:05.277Z,21.22
2023-05-22T18:21:32.275Z,21.13
2023-05-22T18:23:59.006Z,21.09
2023-05-22T18:26:26.686Z,21.09
2023-05-22T18:28:53.191Z,21.06
2023-05-22T18:31:19.982Z,21.01
2023-05-22T18:33:46.608Z,20.98
2023-05-22T18:36:13.809Z,20.96
2023-05-22T18:38:40.432Z,20.96
2023-05-22T18:41:07.256Z,20.92
2023-05-22T18:43:33.793Z,20.95
2023-05-22T18:46:00.328Z,20.95
2023-05-22T18:48:28.165Z,20.95
2023-05-22T18:50:57.358Z,20.95
2023-05-22T18:53:25.166Z,20.94
2023-05-22T18:55:53.670Z,20.92
2023-05-22T18:58:20.474Z,20.94
2023-05-22T19:00:47.031Z,20.95
2023-05-22T19:03:14.047Z,20.93
2023-05-22T19:05:40.691Z,20.92
2023-05-22T19:08:07.249Z,20.90
2023-05-22T19:10:33.742Z,20.87
2023-05-22T19:13:00.291Z,20.80
2023-05-22T19:15:26.815Z,20.78
2023-05-22T19:17:53.357Z,20.75
2023-05-22T19:20:19.857Z,20.69
2023-05-22T19:22:46.416Z,20.65
2023-05-22T19:25:12.925Z,20.63
2023-05-22T19:27:39.606Z,20.61
2023-05-22T19:30:07.198Z,20.60
2023-05-22T19:32:33.867Z,20.59
2023-05-22T19:35:00.490Z,20.55
2023-05-22T19:37:26.967Z,20.55
2023-05-22T19:39:54.219Z,20.51
2023-05-22T19:42:20.750Z,20.47
2023-05-22T19:44:47.233Z,20.44
2023-05-22T19:47:13.855Z,20.42
2023-05-22T19:49:40.502Z,20.41
2023-05-22T19:52:06.927Z,20.37
2023-05-22T19:54:34.685Z,20.37
2023-05-22T19:57:01.343Z,20.35
2023-05-22T19:59:27.805Z,20.36
2023-05-22T20:01:54.330Z,20.34
2023-05-22T20:04:21.480Z,20.31
2023-05-22T20:06:48.377Z,20.26
2023-05-22T20:09:15.008Z,20.21
2023-05-22T20:11:41.474Z,20.17
2023-05-22T20:14:08.258Z,20.12
2023-05-22T20:16:34.933Z,20.05
2023-05-22T20:19:02.504Z,19.98
2023-05-22T20:21:29.127Z,19.95
2023-05-22T20:23:55.636Z,19.92
2023-05-22T20:26:22.271Z,19.87
2023-05-22T20:28:48.707Z,19.84
2023-05-22T20:31:15.194Z,19.79
2023-05-22T20:33:41.698Z,19.75
2023-05-22T20:36:08.637Z,19.69
2023-05-22T20:38:35.146Z,19.64
2023-05-22T20:41:02.562Z,19.58
2023-05-22T20:43:30.736Z,19.56
2023-05-22T20:45:57.502Z,19.53
2023-05-22T20:48:24.073Z,19.46
2023-05-22T20:50:50.663Z,19.40
2023-05-22T20:53:17.560Z,19.30
2023-05-22T20:55:45.053Z,19.17
2023-05-22T20:58:11.585Z,19.10
2023-05-22T21:00:38.192Z,18.99
2023-05-22T21:03:04.811Z,18.93
2023-05-22T21:05:31.436Z,18.87
2023-05-22T21:07:57.914Z,18.78
2023-05-22T21:10:24.333Z,18.76
2023-05-22T21:12:50.850Z,18.70
2023-05-22T21:15:17.499Z,18.62
2023-05-22T21:17:44.143Z,18.57
2023-05-22T21:20:11.048Z,18.50
2023-05-22T21:22:37.531Z,18.45
2023-05-22T21:25:04.314Z,18.40
2023-05-22T21:27:30.765Z,18.33
2023-05-22T21:29:57.251Z,18.29
2023-05-22T21:32:23.751Z,18.25
2023-05-22T21:34:50.327Z,18.17
2023-05-22T21:37:16.827Z,18.11
2023-05-22T21:39:43.282Z,18.05
2023-05-22T21:42:09.935Z,17.98
2023-05-22T21:44:37.421Z,17.92
2023-05-22T21:47:04.026Z,17.87
2023-05-22T21:49:30.594Z,17.82
2023-05-22T21:51:57.131Z,17.76
2023-05-22T21:54:23.621Z,17.72
2023-05-22T21:56:50.108Z,17.68
2023-05-22T21:59:16.609Z,17.64
2023-05-22T22:01:43.326Z,17.63
2023-05-22T22:04:09.888Z,17.56
2023-05-22T22:06:36.852Z,17.49
2023-05-22T22:09:03.585Z,17.44
2023-05-22T22:11:30.151Z,17.37
2023-05-22T22:13:56.806Z,17.32
2023-05-22T22:16:24.354Z,17.26
2023-05-22T22:18:51.321Z,17.22
2023-05-22T22:21:17.907Z,17.18
2023-05-22T22:23:44.327Z,17.17
2023-05-22T22:26:12.134Z,17.13
2023-05-22T22:28:38.629Z,17.08
2023-05-22T22:31:05.133Z,17.04
2023-05-22T22:33:32.754Z,17.01
2023-05-22T22:35:59.602Z,16.93
2023-05-22T22:38:26.833Z,16.91
2023-05-22T22:40:53.317Z,16.81
2023-05-22T22:43:19.774Z,16.79
2023-05-22T22:45:46.508Z,16.79
2023-05-22T22:48:13.055Z,16.75
2023-05-22T22:50:39.823Z,16.70
2023-05-22T22:53:06.486Z,16.61
2023-05-22T22:55:33.255Z,16.54
2023-05-22T22:57:59.762Z,16.46
2023-05-22T23:00:26.217Z,16.37
2023-05-22T23:02:52.750Z,16.33
2023-05-22T23:05:20.534Z,16.31
2023-05-22T23:07:47.783Z,16.26
2023-05-22T23:10:14.956Z,16.23
2023-05-22T23:12:41.792Z,16.19
2023-05-22T23:15:13.219Z,16.14
2023-05-22T23:17:41.277Z,16.13
2023-05-22T23:20:08.946Z,16.09
2023-05-22T23:22:35.613Z,16.05
2023-05-22T23:25:02.284Z,15.99
2023-05-22T23:27:28.818Z,15.94
2023-05-22T23:29:55.326Z,15.92
2023-05-22T23:32:22.242Z,15.91
2023-05-22T23:34:48.795Z,15.88
2023-05-22T23:37:15.680Z,15.79
2023-05-22T23:39:42.123Z,15.80
2023-05-22T23:42:12.106Z,15.80
2023-05-22T23:44:38.576Z,15.85
2023-05-22T23:47:06.579Z,15.86
2023-05-22T23:49:33.329Z,15.87
2023-05-22T23:52:00.007Z,15.89
2023-05-22T23:54:26.502Z,15.91
2023-05-22T23:56:53.665Z,15.90
2023-05-22T23:59:21.521Z,15.93
